Wilmington, OH

9:11 PM EDT on July 21, 2017 (GMT -0400)
2.2 N Wilmington | | Change Station

Elev 1053 ft 39.47 °N, 83.84 °W | Updated 1 minute ago

Partly Cloudy
Partly Cloudy
76.5 °F
Feels Like 77 °F
N
0.0
Wind Variable Wind from NE
Gusts 0.0 mph

Today
High -- | Low -- °F
--% Chance of Precip.
Yesterday
High -- | Low -- °F
Precip. -- in
Pressure 29.94 in
Visibility 10.0 miles
Clouds Few 11000 ft
Heat Index 77 °F
Dew Point 72 °F
Humidity 87%
Rainfall 0.02 in
Snow Depth Not available.
6:25 AM 8:57 PM
Waning Crescent, 3% visible
METAR KILN 220054Z AUTO 04004KT 10SM FEW110 25/23 A2997 RMK AO2 LTG DSNT SW SLP139 T02500228
Pressure 29.94 in
Visibility 10.0 miles
Clouds Few 11000 ft
Heat Index 77 °F
Dew Point 72 °F
Humidity 87%
Rainfall 0.02 in
Snow Depth Not available.
6:25 AM 8:57 PM
Waning Crescent, 3% visible
METAR KILN 220054Z AUTO 04004KT 10SM FEW110 25/23 A2997 RMK AO2 LTG DSNT SW SLP139 T02500228

Get Severe Weather Alerts

Thanks for signing up!

Be on the lookout for a verification email in your inbox.

You'll start receiving the daily forecast at 6 AM.

×

10-Day Weather Forecast

Almanac

Astronomy

Jul. 21, 2017 Rise Set
Actual Time
Civil Twilight
Nautical Twilight
Astronomical Twilight
Moon
Length of Visible Light
Length of Day
Tomorrow will be .
, % of the Moon is Illuminated

Today's Extremes

State Highs State Lows

Community

WunderPhotos

Category 6

Welcome to Category 6. This is the collective home for Weather Underground's featured writeups by Dr. Jeff Masters (right), Bob Henson (left), Chris Burt, and other regular contributors.

Nearby

Air Quality

  Air Quality AQ Index Pollutant
Not available.

Snow Depth

Station Depth Elevation

Earthquake Activity

City Distance Mag. Time & Date
Minimum magnitude displayed is 2.5.

Coastal Water Temperatures

Place Temperature

Stations

Nearby Weather Stations

Station Location Temp. Windchill Dew Point Humidity Wind Precip. Elev Updated Type
                   

Watches & Warnings

There are currently no watches in effect.